createdAt,value
2019-02-21T00:01:32.940Z,99706.34
2019-02-21T00:04:09.941Z,99714.66
2019-02-21T00:06:44.230Z,99708.89
2019-02-21T00:09:18.417Z,99703.40
2019-02-21T00:11:52.840Z,99715.61
2019-02-21T00:14:27.145Z,99714.95
2019-02-21T00:17:01.443Z,99719.13
2019-02-21T00:19:35.729Z,99720.47
2019-02-21T00:22:10.236Z,99730.45
2019-02-21T00:24:44.711Z,99727.79
2019-02-21T00:27:19.269Z,99732.33
2019-02-21T00:29:53.544Z,99731.16
2019-02-21T00:32:28.016Z,99737.97
2019-02-21T00:35:02.281Z,99740.22
2019-02-21T00:37:36.360Z,99746.17
2019-02-21T00:40:10.823Z,99748.39
2019-02-21T00:42:45.088Z,99746.61
2019-02-21T00:45:19.415Z,99747.49
2019-02-21T00:47:53.577Z,99753.62
2019-02-21T00:50:27.879Z,99757.67
2019-02-21T00:53:02.124Z,99754.55
2019-02-21T00:55:36.509Z,99753.58
2019-02-21T00:58:10.934Z,99770.00
2019-02-21T01:00:46.789Z,99771.04
2019-02-21T01:03:22.349Z,99773.23
2019-02-21T01:05:56.467Z,99778.52
2019-02-21T01:08:30.594Z,99784.06
2019-02-21T01:11:06.217Z,99790.77
2019-02-21T01:13:40.651Z,99792.52
2019-02-21T01:16:15.219Z,99797.80
2019-02-21T01:18:49.339Z,99802.94
2019-02-21T01:21:24.651Z,99811.77
2019-02-21T01:23:58.907Z,99810.91
2019-02-21T01:26:32.829Z,99810.78
2019-02-21T01:29:07.265Z,99814.16
2019-02-21T01:31:41.789Z,99815.92
2019-02-21T01:34:15.919Z,99816.45
2019-02-21T01:36:50.125Z,99821.61
2019-02-21T01:39:24.236Z,99824.55
2019-02-21T01:41:58.265Z,99831.67
2019-02-21T01:44:33.501Z,99831.20
2019-02-21T01:47:07.526Z,99839.06
2019-02-21T01:49:41.640Z,99835.30
2019-02-21T01:52:15.894Z,99842.84
2019-02-21T01:54:50.077Z,99861.53
2019-02-21T01:57:24.401Z,99856.72
2019-02-21T01:59:58.295Z,99859.02
2019-02-21T02:02:33.149Z,99860.70
2019-02-21T02:05:07.908Z,99862.06
2019-02-21T02:07:42.685Z,99868.13
2019-02-21T02:10:16.989Z,99863.33
2019-02-21T02:12:52.399Z,99862.39
2019-02-21T02:15:26.626Z,99862.17
2019-02-21T02:18:00.758Z,99879.38
2019-02-21T02:20:34.988Z,99876.87
2019-02-21T02:23:09.185Z,99876.77
2019-02-21T02:25:43.533Z,99871.53
2019-02-21T02:28:18.826Z,99874.55
2019-02-21T02:30:53.281Z,99888.92
2019-02-21T02:33:27.546Z,99892.80
2019-02-21T02:36:01.459Z,99890.06
2019-02-21T02:38:35.712Z,99890.07
2019-02-21T02:41:10.018Z,99888.06
2019-02-21T02:43:44.220Z,99890.69
2019-02-21T02:46:19.355Z,99891.11
2019-02-21T02:48:54.648Z,99892.27
2019-02-21T02:51:28.895Z,99889.43
2019-02-21T02:54:03.152Z,99908.01
2019-02-21T02:56:37.434Z,99899.83
2019-02-21T02:59:11.889Z,99900.76
2019-02-21T03:01:46.217Z,99901.19
2019-02-21T03:04:20.729Z,99903.47
2019-02-21T03:06:56.588Z,99904.28
2019-02-21T03:09:30.858Z,99916.02
2019-02-21T03:12:05.265Z,99906.90
2019-02-21T03:14:39.682Z,99909.92
2019-02-21T03:17:14.099Z,99922.62
2019-02-21T03:19:48.262Z,99929.11
2019-02-21T03:22:22.592Z,99928.17
2019-02-21T03:24:57.845Z,99928.28
2019-02-21T03:27:32.077Z,99930.94
2019-02-21T03:30:06.424Z,99938.80
2019-02-21T03:32:40.810Z,99938.05
2019-02-21T03:35:15.051Z,99940.13
2019-02-21T03:37:49.794Z,99938.66
2019-02-21T03:40:23.898Z,99940.45
2019-02-21T03:42:58.450Z,99940.03
2019-02-21T03:45:32.791Z,99941.39
2019-02-21T03:48:07.319Z,99946.02
2019-02-21T03:50:43.008Z,99947.81
2019-02-21T03:53:20.571Z,99941.82
2019-02-21T03:55:55.358Z,99946.34
2019-02-21T03:58:29.938Z,99941.60
2019-02-21T04:01:04.177Z,99934.57
2019-02-21T04:03:39.277Z,99937.76
2019-02-21T04:06:13.215Z,99938.27
2019-02-21T04:08:47.550Z,99939.20
2019-02-21T04:11:21.892Z,99931.95
2019-02-21T04:13:56.090Z,99931.45
2019-02-21T04:16:30.369Z,99929.11
2019-02-21T04:19:04.702Z,99928.91
2019-02-21T04:21:38.925Z,99922.41
2019-02-21T04:24:14.255Z,99937.73
2019-02-21T04:26:48.366Z,99938.38
2019-02-21T04:29:22.602Z,99933.09
2019-02-21T04:31:56.914Z,99934.28
2019-02-21T04:34:31.012Z,99932.06
2019-02-21T04:37:05.410Z,99930.30
2019-02-21T04:39:39.702Z,99930.52
2019-02-21T04:42:13.791Z,99928.08
2019-02-21T04:44:48.349Z,99924.63
2019-02-21T04:47:22.533Z,99923.98
2019-02-21T04:49:56.697Z,99917.70
2019-02-21T04:52:31.159Z,99917.70
2019-02-21T04:55:05.771Z,99909.74
2019-02-21T04:57:40.142Z,99907.84
2019-02-21T05:00:15.154Z,99909.20
2019-02-21T05:02:49.625Z,99908.77
2019-02-21T05:05:24.137Z,99904.90
2019-02-21T05:07:58.207Z,99905.31
2019-02-21T05:10:32.751Z,99906.36
2019-02-21T05:13:07.116Z,99902.49
2019-02-21T05:15:41.442Z,99906.73
2019-02-21T05:18:16.067Z,99908.61
2019-02-21T05:20:51.476Z,99905.37
2019-02-21T05:23:26.086Z,99900.55
2019-02-21T05:26:00.268Z,99891.44
2019-02-21T05:28:35.012Z,99885.56
2019-02-21T05:31:31.102Z,99889.03
2019-02-21T05:34:13.745Z,99879.28
2019-02-21T05:37:09.039Z,99885.34
2019-02-21T05:40:03.098Z,99873.41
2019-02-21T05:42:51.178Z,99865.13
2019-02-21T05:45:32.448Z,99859.67
2019-02-21T05:48:23.676Z,99854.77
2019-02-21T05:51:29.342Z,99851.72
2019-02-21T05:54:18.005Z,99855.48
2019-02-21T05:57:13.829Z,99855.91
2019-02-21T06:00:18.751Z,99846.91
2019-02-21T06:03:10.050Z,99843.55
2019-02-21T06:06:01.349Z,99835.77
2019-02-21T06:09:00.624Z,99826.88
2019-02-21T06:14:43.634Z,99822.69
2019-02-21T06:17:36.314Z,99827.81
2019-02-21T06:20:29.786Z,99817.74
2019-02-21T06:23:34.670Z,99812.18
2019-02-21T06:26:16.610Z,99809.14
2019-02-21T06:29:04.561Z,99801.28
2019-02-21T06:31:38.693Z,99791.53
2019-02-21T06:34:49.120Z,99788.80
2019-02-21T06:37:23.784Z,99777.25
2019-02-21T06:39:58.533Z,99778.00
2019-02-21T06:42:33.268Z,99772.33
2019-02-21T06:45:08.307Z,99767.10
2019-02-21T06:47:43.090Z,99764.69
2019-02-21T06:50:26.422Z,99763.33
2019-02-21T06:52:55.019Z,99746.44
2019-02-21T06:55:30.406Z,99748.45
2019-02-21T06:58:06.700Z,99748.34
2019-02-21T07:00:42.027Z,99745.40
2019-02-21T07:03:17.245Z,99742.02
2019-02-21T07:05:52.581Z,99731.72
2019-02-21T07:08:27.778Z,99721.56
2019-02-21T07:11:06.493Z,99721.78
2019-02-21T07:13:40.643Z,99716.73
2019-02-21T07:16:17.298Z,99711.16
2019-02-21T07:18:52.347Z,99709.30
2019-02-21T07:21:28.940Z,99704.66
2019-02-21T07:24:04.454Z,99698.73
2019-02-21T07:26:39.664Z,99701.89
2019-02-21T07:29:15.023Z,99695.70
2019-02-21T07:31:50.198Z,99692.25
2019-02-21T07:34:25.841Z,99687.23
2019-02-21T07:37:02.009Z,99680.56
2019-02-21T07:39:37.398Z,99684.56
2019-02-21T07:42:13.594Z,99686.02
2019-02-21T07:44:48.881Z,99677.96
2019-02-21T07:47:24.510Z,99668.96
2019-02-21T07:49:59.412Z,99664.77
2019-02-21T07:52:34.966Z,99656.81
2019-02-21T07:55:10.631Z,99657.52
2019-02-21T07:57:47.087Z,99649.78
2019-02-21T08:00:23.738Z,99650.45
2019-02-21T08:02:58.763Z,99654.64
2019-02-21T08:05:33.748Z,99647.86
2019-02-21T08:08:10.930Z,99647.53
2019-02-21T08:10:47.050Z,99640.41
2019-02-21T08:13:22.398Z,99632.33
2019-02-21T08:15:57.027Z,99632.33
2019-02-21T08:18:32.366Z,99626.09
2019-02-21T08:21:07.243Z,99616.12
2019-02-21T08:23:50.053Z,99620.03
2019-02-21T08:26:20.109Z,99616.16
2019-02-21T08:28:55.558Z,99616.98
2019-02-21T08:31:31.201Z,99614.16
2019-02-21T08:34:09.683Z,99605.80
2019-02-21T08:36:44.388Z,99602.75
2019-02-21T08:39:18.758Z,99595.31
2019-02-21T08:41:55.186Z,99594.58
2019-02-21T08:44:29.879Z,99591.36
2019-02-21T08:47:04.537Z,99592.98
2019-02-21T08:49:39.022Z,99582.16
2019-02-21T08:52:13.501Z,99582.52
2019-02-21T08:54:59.624Z,99586.80
2019-02-21T08:57:24.682Z,99581.02
2019-02-21T08:59:59.417Z,99570.90
2019-02-21T09:02:35.924Z,99555.57
2019-02-21T09:05:10.577Z,99564.40
2019-02-21T09:07:46.583Z,99566.26
2019-02-21T09:10:21.347Z,99565.30
2019-02-21T09:12:55.790Z,99564.13
2019-02-21T09:15:30.455Z,99557.77
2019-02-21T09:18:04.981Z,99556.27
2019-02-21T09:20:39.896Z,99558.84
2019-02-21T09:23:15.866Z,99543.40
2019-02-21T09:25:50.662Z,99550.81
2019-02-21T09:28:25.321Z,99547.34
2019-02-21T09:31:00.061Z,99547.39
2019-02-21T09:33:37.245Z,99544.55
2019-02-21T09:36:12.082Z,99538.86
2019-02-21T09:38:46.357Z,99540.57
2019-02-21T09:41:20.747Z,99537.72
2019-02-21T09:43:55.119Z,99532.16
2019-02-21T09:46:29.422Z,99526.72
2019-02-21T09:49:03.916Z,99531.44
2019-02-21T09:51:38.189Z,99523.17
2019-02-21T09:54:12.627Z,99528.71
2019-02-21T09:56:52.798Z,99523.11
2019-02-21T09:59:23.732Z,99507.94
2019-02-21T10:01:57.899Z,99516.89
2019-02-21T10:04:32.618Z,99511.15
2019-02-21T10:07:07.163Z,99510.61
2019-02-21T10:09:41.613Z,99500.80
2019-02-21T10:12:15.923Z,99491.42
2019-02-21T10:14:54.777Z,99492.34
2019-02-21T10:17:29.097Z,99488.92
2019-02-21T10:20:04.249Z,99494.33
2019-02-21T10:22:38.432Z,99489.61
2019-02-21T10:25:19.399Z,99487.48
2019-02-21T10:27:53.635Z,99487.02
2019-02-21T10:30:27.895Z,99484.89
2019-02-21T10:33:02.346Z,99477.33
2019-02-21T10:35:37.060Z,99485.29
2019-02-21T10:38:11.448Z,99483.16
2019-02-21T10:40:46.570Z,99487.65
2019-02-21T10:43:20.954Z,99484.61
2019-02-21T10:45:55.088Z,99474.46
2019-02-21T10:48:29.477Z,99467.78
2019-02-21T10:51:03.781Z,99466.11
2019-02-21T10:53:37.903Z,99460.42
2019-02-21T10:56:12.300Z,99459.52
2019-02-21T10:58:46.428Z,99466.65
2019-02-21T11:01:20.732Z,99466.42
2019-02-21T11:03:55.031Z,99461.88
2019-02-21T11:06:29.404Z,99461.64
2019-02-21T11:09:04.143Z,99462.47
2019-02-21T11:11:38.744Z,99460.05
2019-02-21T11:14:13.171Z,99464.14
2019-02-21T11:16:48.473Z,99460.05
2019-02-21T11:19:22.819Z,99460.37
2019-02-21T11:21:56.980Z,99466.14
2019-02-21T11:24:31.250Z,99468.02
2019-02-21T11:27:06.617Z,99474.09
2019-02-21T11:29:40.909Z,99468.92
2019-02-21T11:32:15.345Z,99469.14
2019-02-21T11:34:49.797Z,99475.00
2019-02-21T11:37:24.117Z,99475.23
2019-02-21T11:39:58.372Z,99477.95
2019-02-21T11:42:32.773Z,99474.45
2019-02-21T11:45:07.493Z,99480.83
2019-02-21T11:47:41.782Z,99482.50
2019-02-21T11:50:18.235Z,99475.68
2019-02-21T11:52:53.206Z,99484.41
2019-02-21T11:55:27.735Z,99477.58
2019-02-21T11:58:01.883Z,99468.40
2019-02-21T12:00:36.469Z,99467.89
2019-02-21T12:03:10.647Z,99468.71
2019-02-21T12:05:44.973Z,99467.66
2019-02-21T12:08:19.204Z,99475.22
2019-02-21T12:10:53.470Z,99472.03
2019-02-21T12:13:28.631Z,99471.88
2019-02-21T12:16:04.501Z,99469.11
2019-02-21T12:18:38.856Z,99473.25
2019-02-21T12:21:13.318Z,99475.33
2019-02-21T12:23:47.698Z,99469.02
2019-02-21T12:26:21.957Z,99470.69
2019-02-21T12:28:56.394Z,99467.14
2019-02-21T12:31:30.615Z,99472.95
2019-02-21T12:34:04.708Z,99475.09
2019-02-21T12:36:39.263Z,99479.62
2019-02-21T12:39:13.769Z,99485.09
2019-02-21T12:41:48.166Z,99484.19
2019-02-21T12:44:22.467Z,99493.42
2019-02-21T12:46:56.677Z,99495.47
2019-02-21T12:49:32.723Z,99500.88
2019-02-21T12:52:08.206Z,99500.56
2019-02-21T12:54:43.606Z,99501.01
2019-02-21T12:57:18.318Z,99499.05
2019-02-21T12:59:52.640Z,99512.98
2019-02-21T13:02:28.070Z,99519.89
2019-02-21T13:05:02.662Z,99527.34
2019-02-21T13:07:36.846Z,99519.42
2019-02-21T13:10:13.687Z,99530.41
2019-02-21T13:12:48.097Z,99538.80
2019-02-21T13:15:22.671Z,99539.62
2019-02-21T13:17:57.250Z,99549.11
2019-02-21T13:20:31.728Z,99544.62
2019-02-21T13:23:06.167Z,99550.67
2019-02-21T13:25:40.678Z,99552.47
2019-02-21T13:28:14.998Z,99558.80
2019-02-21T13:30:49.637Z,99566.37
2019-02-21T13:33:24.146Z,99568.72
2019-02-21T13:35:58.611Z,99572.73
2019-02-21T13:38:33.274Z,99573.67
2019-02-21T13:41:07.735Z,99568.16
2019-02-21T13:43:42.083Z,99563.77
2019-02-21T13:46:18.684Z,99565.52
2019-02-21T13:49:01.307Z,99575.53
2019-02-21T13:51:33.788Z,99583.73
2019-02-21T13:54:08.060Z,99596.09
2019-02-21T13:56:42.575Z,99603.92
2019-02-21T13:59:16.588Z,99608.02
2019-02-21T14:01:50.793Z,99608.45
2019-02-21T14:04:25.189Z,99609.22
2019-02-21T14:06:59.563Z,99603.36
2019-02-21T14:09:33.831Z,99614.68
2019-02-21T14:12:08.181Z,99615.81
2019-02-21T14:14:42.668Z,99618.17
2019-02-21T14:17:17.180Z,99621.73
2019-02-21T14:19:53.057Z,99619.59
2019-02-21T14:22:27.687Z,99620.19
2019-02-21T14:25:02.044Z,99625.73
2019-02-21T14:27:36.307Z,99631.51
2019-02-21T14:30:12.227Z,99630.45
2019-02-21T14:32:46.622Z,99634.83
2019-02-21T14:35:21.036Z,99644.12
2019-02-21T14:37:55.322Z,99645.48
2019-02-21T14:40:29.598Z,99647.67
2019-02-21T14:43:03.851Z,99645.25
2019-02-21T14:45:38.160Z,99651.55
2019-02-21T14:48:12.510Z,99648.30
2019-02-21T14:50:47.337Z,99653.97
2019-02-21T14:53:22.590Z,99651.23
2019-02-21T14:55:57.077Z,99648.30
2019-02-21T14:58:31.261Z,99653.77
2019-02-21T15:01:06.541Z,99647.75
2019-02-21T15:03:40.701Z,99650.48
2019-02-21T15:06:26.526Z,99655.13
2019-02-21T15:08:51.517Z,99654.59
2019-02-21T15:11:25.819Z,99658.69
2019-02-21T15:13:59.931Z,99655.13
2019-02-21T15:16:34.303Z,99652.91
2019-02-21T15:19:08.596Z,99653.97
2019-02-21T15:21:43.503Z,99647.75
2019-02-21T15:24:18.013Z,99646.27
2019-02-21T15:26:52.182Z,99641.93
2019-02-21T15:29:26.525Z,99649.36
2019-02-21T15:32:10.633Z,99656.34
2019-02-21T15:34:37.316Z,99657.66
2019-02-21T15:37:11.369Z,99659.31
2019-02-21T15:39:45.721Z,99660.53
2019-02-21T15:42:20.237Z,99664.27
2019-02-21T15:44:54.543Z,99670.98
2019-02-21T15:47:28.912Z,99666.28
2019-02-21T15:50:03.167Z,99671.00
2019-02-21T15:52:37.780Z,99669.33
2019-02-21T15:55:13.302Z,99677.30
2019-02-21T15:57:48.139Z,99681.47
2019-02-21T16:00:22.826Z,99680.11
2019-02-21T16:02:57.046Z,99681.70
2019-02-21T16:05:31.304Z,99674.33
2019-02-21T16:08:05.478Z,99680.42
2019-02-21T16:10:40.020Z,99673.59
2019-02-21T16:13:14.804Z,99680.11
2019-02-21T16:15:49.600Z,99678.59
2019-02-21T16:18:23.538Z,99681.84
2019-02-21T16:20:57.841Z,99679.05
2019-02-21T16:23:32.038Z,99681.47
2019-02-21T16:26:06.140Z,99677.82
2019-02-21T16:28:40.455Z,99686.25
2019-02-21T16:31:14.915Z,99689.30
2019-02-21T16:33:49.418Z,99692.11
2019-02-21T16:36:23.710Z,99687.70
2019-02-21T16:38:58.249Z,99692.03
2019-02-21T16:41:36.369Z,99690.44
2019-02-21T16:44:08.396Z,99696.49
2019-02-21T16:46:42.938Z,99703.95
2019-02-21T16:49:17.107Z,99707.22
2019-02-21T16:51:51.419Z,99708.11
2019-02-21T16:54:25.938Z,99713.74
2019-02-21T16:57:00.271Z,99712.30
2019-02-21T16:59:34.637Z,99708.28
2019-02-21T17:02:08.955Z,99710.23
2019-02-21T17:04:43.374Z,99708.79
2019-02-21T17:07:20.230Z,99707.91
2019-02-21T17:09:53.667Z,99708.05
2019-02-21T17:12:27.909Z,99705.91
2019-02-21T17:15:02.567Z,99699.39
2019-02-21T17:17:38.185Z,99696.73
2019-02-21T17:20:13.990Z,99701.06
2019-02-21T17:22:48.471Z,99700.38
2019-02-21T17:25:22.884Z,99702.05
2019-02-21T17:27:57.415Z,99699.83
2019-02-21T17:30:31.684Z,99708.97
2019-02-21T17:33:05.973Z,99707.66
2019-02-21T17:35:40.157Z,99707.61
2019-02-21T17:38:14.680Z,99719.45
2019-02-21T17:40:49.166Z,99718.91
2019-02-21T17:43:24.490Z,99726.28
2019-02-21T17:45:58.731Z,99726.79
2019-02-21T17:48:32.967Z,99724.91
2019-02-21T17:51:07.353Z,99721.27
2019-02-21T17:53:41.440Z,99720.58
2019-02-21T17:56:15.756Z,99720.66
2019-02-21T17:58:50.330Z,99719.53
2019-02-21T18:01:25.573Z,99712.61
2019-02-21T18:04:00.595Z,99706.29
2019-02-21T18:06:34.783Z,99704.18
2019-02-21T18:09:09.494Z,99703.17
2019-02-21T18:11:44.470Z,99697.51
2019-02-21T18:14:18.778Z,99694.11
2019-02-21T18:16:53.170Z,99685.91
2019-02-21T18:19:27.818Z,99677.08
2019-02-21T18:22:01.912Z,99656.97
2019-02-21T18:24:36.385Z,99643.61
2019-02-21T18:27:10.641Z,99635.33
2019-02-21T18:29:45.072Z,99632.83
2019-02-21T18:32:20.462Z,99634.31
2019-02-21T18:34:54.932Z,99638.19
2019-02-21T18:37:29.457Z,99634.55
2019-02-21T18:40:03.929Z,99624.98
2019-02-21T18:42:38.532Z,99619.28
2019-02-21T18:45:12.879Z,99615.10
2019-02-21T18:47:47.424Z,99613.73
2019-02-21T18:50:21.703Z,99602.80
2019-02-21T18:52:56.051Z,99609.88
2019-02-21T18:55:30.272Z,99626.63
2019-02-21T18:58:04.845Z,99628.23
2019-02-21T19:00:39.166Z,99620.57
2019-02-21T19:03:13.521Z,99618.39
2019-02-21T19:05:47.970Z,99622.58
2019-02-21T19:08:22.868Z,99614.84
2019-02-21T19:10:58.219Z,99614.22
2019-02-21T19:13:32.533Z,99627.56
2019-02-21T19:16:08.113Z,99631.16
2019-02-21T19:18:42.582Z,99629.70
2019-02-21T19:21:17.042Z,99637.90
2019-02-21T19:23:51.197Z,99641.45
2019-02-21T19:26:25.669Z,99635.94
2019-02-21T19:29:00.042Z,99628.80
2019-02-21T19:31:34.635Z,99638.36
2019-02-21T19:34:09.981Z,99629.84
2019-02-21T19:36:44.266Z,99629.84
2019-02-21T19:39:18.797Z,99631.76
2019-02-21T19:41:52.957Z,99633.13
2019-02-21T19:44:27.354Z,99635.00
2019-02-21T19:47:01.574Z,99636.36
2019-02-21T19:49:35.882Z,99629.53
2019-02-21T19:52:10.170Z,99618.33
2019-02-21T19:54:44.639Z,99615.59
2019-02-21T19:57:18.994Z,99612.33
2019-02-21T19:59:53.435Z,99607.63
2019-02-21T20:02:27.925Z,99590.39
2019-02-21T20:05:02.401Z,99585.16
2019-02-21T20:07:36.500Z,99596.39
2019-02-21T20:10:10.909Z,99588.95
2019-02-21T20:12:45.323Z,99596.91
2019-02-21T20:15:19.759Z,99608.38
2019-02-21T20:17:54.130Z,99599.05
2019-02-21T20:20:28.449Z,99600.41
2019-02-21T20:23:02.748Z,99597.68
2019-02-21T20:25:37.180Z,99597.37
2019-02-21T20:28:11.668Z,99604.19
2019-02-21T20:30:45.958Z,99606.92
2019-02-21T20:33:20.471Z,99615.12
2019-02-21T20:35:54.548Z,99617.84
2019-02-21T20:38:32.174Z,99623.03
2019-02-21T20:41:05.289Z,99618.94
2019-02-21T20:43:39.777Z,99601.41
2019-02-21T20:46:14.239Z,99595.41
2019-02-21T20:48:48.679Z,99588.58
2019-02-21T20:51:22.883Z,99571.88
2019-02-21T20:53:57.466Z,99558.54
2019-02-21T20:56:32.768Z,99541.84
2019-02-21T20:59:08.034Z,99532.60
2019-02-21T21:01:42.229Z,99532.28
2019-02-21T21:04:16.456Z,99541.02
2019-02-21T21:06:50.844Z,99555.81
2019-02-21T21:09:25.281Z,99570.29
2019-02-21T21:11:59.700Z,99570.52
2019-02-21T21:14:33.981Z,99556.86
2019-02-21T21:17:08.288Z,99559.25
2019-02-21T21:19:42.901Z,99568.09
2019-02-21T21:22:17.176Z,99574.92
2019-02-21T21:24:51.279Z,99571.66
2019-02-21T21:27:25.606Z,99565.37
2019-02-21T21:29:59.977Z,99577.42
2019-02-21T21:32:34.391Z,99573.10
2019-02-21T21:35:09.037Z,99572.33
2019-02-21T21:37:44.530Z,99564.09
2019-02-21T21:40:18.908Z,99564.00
2019-02-21T21:42:53.303Z,99565.05
2019-02-21T21:45:27.916Z,99568.33
2019-02-21T21:48:02.005Z,99560.62
2019-02-21T21:50:36.442Z,99567.98
2019-02-21T21:53:11.817Z,99573.79
2019-02-21T21:55:45.880Z,99563.89
2019-02-21T21:58:20.093Z,99552.06
2019-02-21T22:00:54.227Z,99546.69
2019-02-21T22:03:28.609Z,99541.73
2019-02-21T22:06:02.801Z,99543.41
2019-02-21T22:08:36.972Z,99548.05
2019-02-21T22:11:11.140Z,99554.88
2019-02-21T22:13:45.354Z,99559.80
2019-02-21T22:16:19.405Z,99544.77
2019-02-21T22:18:53.669Z,99544.23
2019-02-21T22:21:28.711Z,99535.76
2019-02-21T22:24:03.128Z,99536.81
2019-02-21T22:26:37.422Z,99528.85
2019-02-21T22:29:11.728Z,99523.16
2019-02-21T22:31:45.922Z,99518.47
2019-02-21T22:34:20.179Z,99504.28
2019-02-21T22:36:54.339Z,99502.28
2019-02-21T22:39:28.416Z,99511.02
2019-02-21T22:42:02.550Z,99514.80
2019-02-21T22:44:36.593Z,99518.16
2019-02-21T22:47:10.875Z,99518.16
2019-02-21T22:49:45.211Z,99513.75
2019-02-21T22:52:19.315Z,99501.47
2019-02-21T22:54:54.548Z,99502.28
2019-02-21T22:57:28.657Z,99511.02
2019-02-21T23:00:02.857Z,99505.02
2019-02-21T23:02:39.131Z,99508.29
2019-02-21T23:05:42.533Z,99530.67
2019-02-21T23:09:10.174Z,99520.27
2019-02-21T23:11:44.728Z,99523.00
2019-02-21T23:14:19.541Z,99527.09
2019-02-21T23:16:54.039Z,99513.39
2019-02-21T23:19:27.982Z,99522.72
2019-02-21T23:22:02.308Z,99525.45
2019-02-21T23:24:36.862Z,99531.65
2019-02-21T23:27:11.072Z,99528.69
2019-02-21T23:29:46.421Z,99536.87
2019-02-21T23:32:20.728Z,99538.47
2019-02-21T23:34:56.376Z,99537.73
2019-02-21T23:37:30.739Z,99543.20
2019-02-21T23:40:05.190Z,99547.29
2019-02-21T23:42:39.819Z,99547.72
2019-02-21T23:45:15.267Z,99552.58
2019-02-21T23:47:50.160Z,99554.49
2019-02-21T23:50:24.772Z,99553.64
2019-02-21T23:52:59.005Z,99559.64
2019-02-21T23:55:33.336Z,99559.95
2019-02-21T23:58:07.851Z,99563.19
